createdAt,value
2019-02-16T00:00:11.522Z,1.99
2019-02-16T00:02:59.880Z,1.93
2019-02-16T00:05:48.339Z,1.84
2019-02-16T00:08:36.608Z,1.76
2019-02-16T00:11:25.515Z,1.65
2019-02-16T00:14:14.019Z,1.63
2019-02-16T00:17:03.067Z,1.61
2019-02-16T00:19:52.558Z,1.57
2019-02-16T00:22:41.015Z,1.57
2019-02-16T00:25:29.712Z,1.54
2019-02-16T00:28:17.910Z,1.51
2019-02-16T00:31:06.010Z,1.50
2019-02-16T00:33:54.502Z,1.49
2019-02-16T00:36:42.976Z,1.43
2019-02-16T00:39:31.169Z,1.44
2019-02-16T00:42:19.451Z,1.37
2019-02-16T00:45:07.700Z,1.39
2019-02-16T00:47:55.888Z,1.35
2019-02-16T00:50:44.296Z,1.31
2019-02-16T00:53:33.145Z,1.35
2019-02-16T00:56:21.518Z,1.37
2019-02-16T00:59:10.067Z,1.36
2019-02-16T01:01:58.347Z,1.27
2019-02-16T01:04:46.839Z,1.17
2019-02-16T01:07:35.347Z,1.13
2019-02-16T01:10:23.352Z,1.15
2019-02-16T01:13:11.479Z,1.16
2019-02-16T01:15:59.983Z,1.16
2019-02-16T01:18:48.227Z,1.21
2019-02-16T01:21:36.574Z,1.19
2019-02-16T01:24:24.740Z,1.15
2019-02-16T01:27:13.230Z,1.21
2019-02-16T01:30:01.888Z,1.45
2019-02-16T01:32:50.174Z,1.61
2019-02-16T01:35:38.759Z,1.60
2019-02-16T01:38:27.263Z,1.46
2019-02-16T01:41:15.742Z,1.32
2019-02-16T01:44:04.580Z,1.21
2019-02-16T01:46:53.548Z,1.11
2019-02-16T01:49:41.751Z,1.12
2019-02-16T01:52:30.354Z,1.07
2019-02-16T01:55:18.810Z,0.97
2019-02-16T01:58:07.511Z,0.95
2019-02-16T02:00:56.008Z,0.96
2019-02-16T02:03:44.568Z,0.90
2019-02-16T02:06:33.218Z,0.85
2019-02-16T02:09:21.901Z,0.92
2019-02-16T02:12:10.210Z,0.92
2019-02-16T02:14:59.211Z,0.90
2019-02-16T02:17:47.680Z,0.90
2019-02-16T02:20:36.078Z,0.90
2019-02-16T02:23:24.345Z,0.86
2019-02-16T02:26:13.011Z,0.80
2019-02-16T02:29:01.202Z,0.79
2019-02-16T02:31:49.819Z,0.77
2019-02-16T02:34:38.277Z,0.72
2019-02-16T02:37:26.971Z,0.70
2019-02-16T02:40:16.315Z,0.66
2019-02-16T02:43:04.700Z,0.56
2019-02-16T02:45:52.929Z,0.50
2019-02-16T02:48:41.668Z,0.53
2019-02-16T02:51:30.221Z,0.47
2019-02-16T02:54:19.261Z,0.48
2019-02-16T02:57:07.531Z,0.45
2019-02-16T02:59:56.175Z,0.48
2019-02-16T03:02:44.376Z,0.43
2019-02-16T03:05:33.000Z,0.42
2019-02-16T03:08:21.567Z,0.43
2019-02-16T03:11:10.285Z,0.74
2019-02-16T03:13:58.507Z,0.77
2019-02-16T03:16:47.256Z,0.90
2019-02-16T03:19:36.329Z,1.08
2019-02-16T03:22:25.307Z,1.02
2019-02-16T03:25:13.927Z,0.99
2019-02-16T03:28:36.487Z,0.84
2019-02-16T03:32:06.189Z,0.73
2019-02-16T03:35:38.894Z,0.60
2019-02-16T03:39:22.618Z,0.55
2019-02-16T03:42:10.928Z,0.47
2019-02-16T03:44:59.410Z,0.44
2019-02-16T03:47:47.609Z,0.38
2019-02-16T03:50:36.167Z,0.32
2019-02-16T03:53:25.726Z,0.27
2019-02-16T03:56:13.949Z,0.31
2019-02-16T03:59:02.543Z,0.27
2019-02-16T04:01:51.031Z,0.21
2019-02-16T04:04:39.515Z,0.14
2019-02-16T04:07:27.802Z,0.13
2019-02-16T04:10:16.051Z,0.14
2019-02-16T04:13:04.271Z,0.11
2019-02-16T04:15:53.270Z,0.15
2019-02-16T04:18:41.672Z,0.08
2019-02-16T04:21:30.684Z,0.05
2019-02-16T04:24:19.026Z,0.07
2019-02-16T04:27:07.485Z,0.09
2019-02-16T04:29:55.775Z,0.07
2019-02-16T04:32:44.476Z,0.05
2019-02-16T04:35:32.729Z,0.07
2019-02-16T04:38:21.217Z,0.09
2019-02-16T04:41:09.644Z,0.13
2019-02-16T04:43:58.621Z,0.15
2019-02-16T04:46:47.076Z,0.24
2019-02-16T04:49:35.346Z,0.22
2019-02-16T04:52:33.905Z,0.18
2019-02-16T04:55:13.640Z,0.14
2019-02-16T04:58:02.187Z,0.10
2019-02-16T05:00:50.657Z,0.15
2019-02-16T05:03:38.931Z,0.17
2019-02-16T05:06:27.892Z,0.13
2019-02-16T05:09:16.452Z,0.09
2019-02-16T05:12:05.946Z,0.09
2019-02-16T05:14:54.443Z,0.09
2019-02-16T05:17:42.612Z,0.08
2019-02-16T05:20:30.801Z,0.08
2019-02-16T05:23:19.124Z,0.26
2019-02-16T05:26:07.725Z,0.29
2019-02-16T05:28:55.955Z,0.24
2019-02-16T05:31:44.192Z,0.23
2019-02-16T05:34:32.392Z,0.20
2019-02-16T05:37:20.717Z,0.18
2019-02-16T05:40:09.752Z,0.16
2019-02-16T05:42:57.981Z,0.14
2019-02-16T05:45:46.588Z,0.16
2019-02-16T05:48:35.099Z,0.17
2019-02-16T05:51:24.230Z,0.31
2019-02-16T05:54:12.449Z,0.72
2019-02-16T05:57:00.930Z,1.00
2019-02-16T05:59:49.356Z,1.22
2019-02-16T06:02:37.670Z,1.34
2019-02-16T06:05:26.293Z,1.37
2019-02-16T06:08:14.573Z,1.43
2019-02-16T06:11:03.294Z,1.48
2019-02-16T06:13:51.320Z,1.64
2019-02-16T06:16:39.648Z,1.79
2019-02-16T06:19:28.279Z,1.88
2019-02-16T06:22:16.792Z,1.97
2019-02-16T06:25:05.153Z,2.03
2019-02-16T06:27:53.669Z,2.15
2019-02-16T06:30:42.015Z,2.30
2019-02-16T06:33:30.510Z,2.39
2019-02-16T06:36:27.150Z,2.47
2019-02-16T06:39:15.611Z,2.52
2019-02-16T06:42:03.783Z,2.56
2019-02-16T06:44:52.249Z,2.64
2019-02-16T06:47:40.869Z,2.64
2019-02-16T06:50:36.774Z,2.49
2019-02-16T06:53:18.971Z,2.40
2019-02-16T06:56:16.949Z,2.36
2019-02-16T06:59:05.662Z,2.36
2019-02-16T07:01:53.981Z,2.33
2019-02-16T07:04:42.192Z,2.30
2019-02-16T07:07:30.396Z,2.22
2019-02-16T07:10:19.133Z,2.20
2019-02-16T07:13:07.389Z,2.18
2019-02-16T07:16:13.937Z,2.19
2019-02-16T07:19:06.376Z,2.20
2019-02-16T07:21:54.654Z,2.23
2019-02-16T07:24:42.834Z,2.32
2019-02-16T07:27:34.554Z,2.39
2019-02-16T07:30:22.813Z,2.53
2019-02-16T07:33:11.846Z,2.70
2019-02-16T07:36:00.410Z,2.90
2019-02-16T07:38:48.656Z,2.90
2019-02-16T07:41:36.931Z,3.05
2019-02-16T07:44:40.904Z,3.29
2019-02-16T07:47:37.458Z,3.29
2019-02-16T07:50:32.578Z,3.62
2019-02-16T07:53:48.940Z,3.62
2019-02-16T07:57:02.667Z,3.94
2019-02-16T08:00:10.602Z,3.94
2019-02-16T08:03:13.798Z,4.18
2019-02-16T08:06:23.476Z,4.38
2019-02-16T08:09:30.475Z,4.57
2019-02-16T08:12:41.333Z,4.80
2019-02-16T08:16:03.834Z,4.99
2019-02-16T08:18:58.387Z,5.23
2019-02-16T08:22:11.413Z,5.51
2019-02-16T08:25:17.837Z,5.64
2019-02-16T08:28:39.697Z,5.94
2019-02-16T08:31:47.021Z,6.06
2019-02-16T08:34:57.048Z,6.17
2019-02-16T08:38:10.840Z,6.23
2019-02-16T08:41:20.752Z,6.40
2019-02-16T08:44:26.257Z,6.58
2019-02-16T08:47:34.172Z,6.83
2019-02-16T08:50:36.493Z,6.84
2019-02-16T08:53:50.201Z,6.95
2019-02-16T08:56:49.283Z,7.15
2019-02-16T08:59:55.186Z,7.19
2019-02-16T09:02:55.032Z,7.19
2019-02-16T09:06:14.384Z,7.24
2019-02-16T09:09:30.411Z,7.29
2019-02-16T09:12:38.986Z,7.54
2019-02-16T09:15:52.025Z,7.75
2019-02-16T09:19:08.332Z,7.92
2019-02-16T09:22:13.995Z,7.94
2019-02-16T09:25:24.264Z,7.92
2019-02-16T09:28:29.826Z,7.87
2019-02-16T09:31:43.658Z,8.01
2019-02-16T09:34:46.085Z,8.12
2019-02-16T09:37:42.651Z,8.06
2019-02-16T09:40:51.481Z,8.19
2019-02-16T09:44:04.614Z,8.21
2019-02-16T09:47:10.386Z,8.33
2019-02-16T09:50:30.261Z,8.40
2019-02-16T09:53:35.906Z,8.43
2019-02-16T09:56:48.714Z,8.51
2019-02-16T09:59:53.890Z,8.63
2019-02-16T10:02:50.513Z,8.71
2019-02-16T10:06:00.430Z,8.68
2019-02-16T10:09:10.953Z,8.76
2019-02-16T10:12:21.047Z,8.71
2019-02-16T10:15:40.570Z,8.91
2019-02-16T10:18:46.189Z,8.77
2019-02-16T10:21:52.652Z,8.83
2019-02-16T10:24:58.240Z,8.97
2019-02-16T10:27:54.132Z,9.09
2019-02-16T10:30:47.788Z,9.32
2019-02-16T10:33:43.557Z,9.45
2019-02-16T10:36:46.960Z,9.38
2019-02-16T10:39:43.455Z,9.60
2019-02-16T10:42:50.925Z,9.64
2019-02-16T10:46:03.874Z,9.60
2019-02-16T10:49:16.886Z,9.66
2019-02-16T10:52:24.216Z,9.91
2019-02-16T10:55:38.197Z,9.89
2019-02-16T10:58:44.263Z,9.94
2019-02-16T11:01:50.600Z,9.94
2019-02-16T11:04:46.954Z,10.14
2019-02-16T11:08:09.527Z,10.39
2019-02-16T11:11:26.085Z,10.53
2019-02-16T11:14:39.196Z,10.72
2019-02-16T11:17:48.272Z,10.68
2019-02-16T11:21:01.982Z,10.78
2019-02-16T11:24:07.990Z,11.02
2019-02-16T11:27:06.514Z,11.21
2019-02-16T11:30:20.042Z,11.23
2019-02-16T11:33:32.116Z,11.28
2019-02-16T11:36:36.020Z,11.38
2019-02-16T11:39:41.507Z,11.61
2019-02-16T11:42:38.178Z,11.81
2019-02-16T11:45:35.572Z,11.89
2019-02-16T11:48:41.471Z,12.00
2019-02-16T11:51:49.329Z,11.91
2019-02-16T11:54:54.144Z,11.95
2019-02-16T11:58:14.049Z,12.15
2019-02-16T12:01:26.922Z,12.22
2019-02-16T12:04:52.462Z,12.22
2019-02-16T12:08:05.358Z,12.19
2019-02-16T12:11:02.291Z,12.39
2019-02-16T12:14:10.552Z,12.57
2019-02-16T12:17:20.812Z,12.63
2019-02-16T12:20:33.626Z,12.70
2019-02-16T12:23:46.312Z,12.67
2019-02-16T12:26:47.169Z,12.83
2019-02-16T12:29:41.380Z,12.83
2019-02-16T12:32:55.013Z,12.77
2019-02-16T12:35:54.066Z,12.91
2019-02-16T12:39:05.064Z,12.89
2019-02-16T12:42:15.199Z,12.83
2019-02-16T12:45:25.616Z,12.88
2019-02-16T12:48:27.925Z,13.05
2019-02-16T12:51:24.578Z,13.19
2019-02-16T12:54:25.899Z,13.11
2019-02-16T12:57:32.997Z,13.21
2019-02-16T13:00:38.898Z,13.15
2019-02-16T13:03:55.522Z,13.12
2019-02-16T13:07:05.962Z,12.91
2019-02-16T13:10:06.161Z,12.91
2019-02-16T13:13:16.818Z,12.92
2019-02-16T13:16:17.790Z,13.01
2019-02-16T13:19:24.803Z,13.27
2019-02-16T13:22:34.180Z,13.53
2019-02-16T13:25:30.819Z,13.52
2019-02-16T13:28:50.280Z,13.62
2019-02-16T13:31:55.947Z,13.62
2019-02-16T13:35:01.797Z,13.67
2019-02-16T13:38:12.279Z,13.84
2019-02-16T13:41:05.105Z,13.99
2019-02-16T13:44:02.536Z,14.17
2019-02-16T13:47:04.320Z,14.22
2019-02-16T13:50:07.089Z,14.28
2019-02-16T13:53:12.763Z,14.26
2019-02-16T13:56:31.827Z,14.34
2019-02-16T13:59:26.391Z,14.44
2019-02-16T14:02:33.890Z,14.48
2019-02-16T14:05:38.295Z,14.54
2019-02-16T14:08:57.730Z,14.65
2019-02-16T14:12:11.654Z,14.82
2019-02-16T14:15:16.555Z,15.05
2019-02-16T14:18:04.790Z,15.07
2019-02-16T14:20:53.238Z,15.17
2019-02-16T14:23:41.724Z,15.48
2019-02-16T14:26:30.015Z,15.82
2019-02-16T14:29:18.251Z,16.79
2019-02-16T14:32:06.431Z,17.35
2019-02-16T14:34:54.871Z,18.03
2019-02-16T14:38:05.408Z,18.53
2019-02-16T14:40:53.660Z,18.67
2019-02-16T14:43:42.288Z,18.79
2019-02-16T14:46:30.812Z,18.89
2019-02-16T14:49:19.495Z,19.25
2019-02-16T14:52:08.254Z,19.37
2019-02-16T14:54:56.913Z,19.89
2019-02-16T14:57:45.123Z,19.50
2019-02-16T15:00:33.786Z,18.80
2019-02-16T15:03:22.056Z,18.36
2019-02-16T15:06:10.074Z,17.96
2019-02-16T15:08:58.549Z,17.79
2019-02-16T15:11:46.931Z,17.91
2019-02-16T15:14:35.184Z,17.80
2019-02-16T15:17:24.143Z,17.62
2019-02-16T15:20:13.118Z,17.73
2019-02-16T15:23:01.624Z,17.96
2019-02-16T15:25:50.005Z,17.98
2019-02-16T15:28:38.266Z,17.51
2019-02-16T15:31:27.676Z,16.95
2019-02-16T15:34:16.610Z,16.30
2019-02-16T15:37:05.138Z,15.73
2019-02-16T15:39:53.704Z,15.50
2019-02-16T15:42:42.015Z,15.15
2019-02-16T15:45:30.689Z,14.76
2019-02-16T15:48:18.916Z,14.47
2019-02-16T15:51:07.242Z,14.19
2019-02-16T15:53:55.798Z,13.82
2019-02-16T15:56:45.089Z,13.40
2019-02-16T15:59:35.408Z,12.98
2019-02-16T16:02:23.279Z,12.55
2019-02-16T16:05:11.526Z,12.18
2019-02-16T16:08:20.556Z,11.84
2019-02-16T16:11:12.798Z,11.52
2019-02-16T16:14:29.672Z,11.18
2019-02-16T16:17:39.867Z,10.88
2019-02-16T16:20:40.862Z,10.57
2019-02-16T16:24:00.213Z,10.26
2019-02-16T16:27:07.419Z,10.02
2019-02-16T16:30:32.977Z,9.79
2019-02-16T16:33:46.087Z,9.63
2019-02-16T16:36:52.153Z,9.46
2019-02-16T16:40:08.732Z,9.28
2019-02-16T16:43:16.374Z,9.08
2019-02-16T16:46:35.214Z,8.86
2019-02-16T16:49:48.247Z,8.67
2019-02-16T16:53:00.259Z,8.51
2019-02-16T16:55:58.550Z,8.36
2019-02-16T16:59:18.039Z,8.26
2019-02-16T17:02:30.737Z,8.15
2019-02-16T17:05:47.120Z,8.00
2019-02-16T17:09:12.845Z,7.87
2019-02-16T17:12:18.326Z,7.84
2019-02-16T17:15:32.053Z,7.73
2019-02-16T17:18:30.171Z,7.67
2019-02-16T17:21:36.811Z,7.68
2019-02-16T17:24:50.448Z,7.53
2019-02-16T17:28:00.751Z,7.44
2019-02-16T17:31:07.317Z,7.39
2019-02-16T17:34:13.139Z,7.37
2019-02-16T17:37:24.393Z,7.34
2019-02-16T17:40:22.293Z,7.35
2019-02-16T17:43:16.844Z,7.27
2019-02-16T17:46:24.286Z,7.17
2019-02-16T17:49:37.470Z,7.12
2019-02-16T17:52:51.275Z,7.10
2019-02-16T17:55:46.617Z,7.00
2019-02-16T17:58:59.863Z,6.89
2019-02-16T18:01:56.858Z,6.82
2019-02-16T18:05:07.658Z,6.73
2019-02-16T18:08:17.979Z,6.69
2019-02-16T18:11:25.304Z,6.62
2019-02-16T18:14:35.445Z,6.59
2019-02-16T18:17:33.079Z,6.53
2019-02-16T18:20:32.446Z,6.46
2019-02-16T18:23:35.114Z,6.44
2019-02-16T18:26:45.363Z,6.37
2019-02-16T18:29:58.098Z,6.29
2019-02-16T18:33:14.498Z,6.24
2019-02-16T18:36:18.310Z,6.20
2019-02-16T18:39:25.451Z,6.19
2019-02-16T18:42:35.939Z,6.06
2019-02-16T18:45:41.488Z,5.93
2019-02-16T18:48:51.825Z,5.89
2019-02-16T18:52:02.243Z,5.91
2019-02-16T18:55:11.050Z,5.86
2019-02-16T18:58:15.467Z,5.82
2019-02-16T19:01:29.010Z,5.81
2019-02-16T19:04:43.325Z,5.79
2019-02-16T19:07:47.960Z,5.80
2019-02-16T19:10:54.227Z,5.75
2019-02-16T19:14:04.857Z,5.72
2019-02-16T19:17:01.319Z,5.73
2019-02-16T19:20:05.784Z,5.71
2019-02-16T19:23:18.917Z,5.70
2019-02-16T19:26:24.063Z,5.71
2019-02-16T19:29:35.271Z,5.66
2019-02-16T19:32:38.953Z,5.61
2019-02-16T19:35:42.992Z,5.54
2019-02-16T19:38:49.302Z,5.50
2019-02-16T19:41:48.020Z,5.48
2019-02-16T19:44:58.627Z,5.51
2019-02-16T19:47:57.683Z,5.47
2019-02-16T19:50:57.071Z,5.41
2019-02-16T19:54:02.912Z,5.32
2019-02-16T19:57:26.645Z,5.24
2019-02-16T20:00:29.174Z,5.16
2019-02-16T20:03:35.123Z,5.43
2019-02-16T20:06:44.559Z,5.48
2019-02-16T20:09:43.774Z,5.47
2019-02-16T20:12:43.895Z,5.37
2019-02-16T20:15:49.505Z,5.31
2019-02-16T20:19:15.095Z,5.30
2019-02-16T20:22:34.135Z,5.32
2019-02-16T20:25:39.687Z,5.30
2019-02-16T20:28:49.934Z,5.43
2019-02-16T20:31:55.654Z,5.34
2019-02-16T20:35:05.723Z,5.34
2019-02-16T20:38:03.961Z,5.27
2019-02-16T20:41:07.909Z,5.18
2019-02-16T20:44:14.115Z,5.06
2019-02-16T20:47:16.358Z,5.03
2019-02-16T20:50:38.253Z,4.91
2019-02-16T20:53:57.429Z,4.92
2019-02-16T20:56:59.294Z,4.87
2019-02-16T20:59:54.467Z,4.84
2019-02-16T21:03:04.453Z,4.83
2019-02-16T21:06:17.426Z,4.84
2019-02-16T21:09:34.084Z,4.73
2019-02-16T21:12:41.192Z,4.60
2019-02-16T21:15:42.491Z,4.46
2019-02-16T21:18:55.943Z,4.46
2019-02-16T21:22:08.218Z,4.25
2019-02-16T21:25:05.022Z,4.25
2019-02-16T21:28:17.954Z,4.20
2019-02-16T21:31:32.330Z,4.17
2019-02-16T21:34:38.293Z,4.23
2019-02-16T21:37:51.888Z,4.23
2019-02-16T21:40:49.427Z,4.04
2019-02-16T21:43:50.305Z,4.04
2019-02-16T21:46:49.683Z,3.93
2019-02-16T21:50:02.191Z,3.86
2019-02-16T21:53:01.205Z,3.86
2019-02-16T21:56:06.987Z,3.82
2019-02-16T21:59:29.616Z,3.51
2019-02-16T22:02:39.919Z,3.51
2019-02-16T22:05:49.788Z,3.42
2019-02-16T22:09:03.237Z,3.25
2019-02-16T22:12:19.453Z,3.25
2019-02-16T22:15:08.785Z,3.06
2019-02-16T22:17:57.568Z,3.06
2019-02-16T22:20:45.787Z,2.95
2019-02-16T22:23:34.127Z,2.84
2019-02-16T22:26:22.739Z,2.77
2019-02-16T22:29:11.375Z,2.65
2019-02-16T22:31:59.629Z,2.59
2019-02-16T22:34:48.258Z,2.52
2019-02-16T22:37:36.839Z,2.48
2019-02-16T22:40:25.437Z,2.41
2019-02-16T22:43:13.679Z,2.38
2019-02-16T22:46:02.652Z,2.32
2019-02-16T22:48:52.379Z,2.26
2019-02-16T22:51:40.873Z,2.17
2019-02-16T22:54:29.101Z,2.17
2019-02-16T22:57:17.629Z,2.21
2019-02-16T23:00:09.898Z,2.24
2019-02-16T23:02:58.519Z,2.20
2019-02-16T23:05:46.699Z,2.13
2019-02-16T23:08:34.998Z,2.06
2019-02-16T23:11:23.277Z,1.98
2019-02-16T23:14:11.888Z,1.94
2019-02-16T23:17:00.077Z,1.89
2019-02-16T23:19:49.096Z,1.84
2019-02-16T23:22:37.380Z,1.81
2019-02-16T23:25:26.001Z,1.79
2019-02-16T23:28:14.280Z,1.73
2019-02-16T23:31:03.074Z,1.69
2019-02-16T23:33:51.404Z,1.62
2019-02-16T23:36:39.868Z,1.57
2019-02-16T23:39:28.059Z,1.72
2019-02-16T23:42:16.523Z,1.63
2019-02-16T23:45:05.150Z,1.56
2019-02-16T23:47:54.355Z,1.53
2019-02-16T23:50:43.379Z,1.50
2019-02-16T23:53:31.563Z,1.50
2019-02-16T23:56:19.763Z,1.52
2019-02-16T23:59:08.420Z,1.65
